Time;durP1;ratioP1;P1;durP2;ratioP2;P2;SDS_P1;SDS_P2;PMS_P1;PMS_P2;Temp;Humidity;BMP_temperature;BMP_pressure;BME280_temperature;BME280_humidity;BME280_pressure;Samples;Min_cycle;Max_cycle;Signal;HPM_P1;HPM_P2
2020/12/31 00:01:23;;;;;;;4.43;3.07;;;5.60;1.00;;;;;;5034152;28;20423;-70
2020/12/31 00:03:49;;;;;;;6.37;4.40;;;5.60;1.00;;;;;;5034475;28;20419;-70
2020/12/31 00:06:15;;;;;;;4.30;3.87;;;5.60;1.00;;;;;;5033482;28;20734;-69
2020/12/31 00:08:41;;;;;;;5.33;3.97;;;5.60;1.00;;;;;;5034367;28;20459;-69
2020/12/31 00:11:07;;;;;;;7.00;3.97;;;5.60;1.00;;;;;;5025141;28;20439;-69
2020/12/31 00:13:32;;;;;;;5.43;4.37;;;5.60;1.00;;;;;;5016323;28;20260;-70
2020/12/31 00:15:59;;;;;;;4.70;3.50;;;5.60;1.00;;;;;;5034092;28;20181;-69
2020/12/31 00:18:25;;;;;;;6.00;4.40;;;5.60;1.00;;;;;;5033636;28;20191;-70
2020/12/31 00:20:51;;;;;;;5.20;4.23;;;5.50;1.00;;;;;;5025343;28;20786;-69
2020/12/31 00:23:17;;;;;;;4.60;3.80;;;5.40;1.00;;;;;;5058429;28;20497;-69
2020/12/31 00:25:50;;;;;;;4.60;4.20;;;5.20;1.00;;;;;;5023044;28;20192;-60
2020/12/31 00:28:18;;;;;;;6.17;4.73;;;5.10;1.00;;;;;;5046816;28;20236;-70
2020/12/31 00:30:44;;;;;;;5.53;5.00;;;5.00;1.00;;;;;;5046384;28;20416;-60
2020/12/31 00:33:17;;;;;;;6.23;4.80;;;5.00;1.00;;;;;;5057110;28;20786;-71
2020/12/31 00:35:44;;;;;;;4.87;4.40;;;5.10;1.00;;;;;;5034349;28;20780;-60
2020/12/31 00:38:10;;;;;;;7.30;4.27;;;5.10;1.00;;;;;;5034102;28;20427;-70
2020/12/31 00:40:36;;;;;;;8.10;5.67;;;5.10;1.00;;;;;;5033712;28;20852;-70
2020/12/31 00:43:03;;;;;;;6.57;4.60;;;5.00;1.00;;;;;;5014658;28;20448;-60
2020/12/31 00:45:28;;;;;;;4.97;4.33;;;5.00;1.00;;;;;;5014276;28;20470;-59
2020/12/31 00:47:54;;;;;;;8.00;4.50;;;4.90;1.00;;;;;;5013962;28;20468;-69
2020/12/31 00:50:22;;;;;;;6.13;4.23;;;5.00;1.00;;;;;;5024923;28;20650;-69
2020/12/31 00:52:51;;;;;;;6.40;4.77;;;4.90;1.00;;;;;;5036011;28;20235;-60
2020/12/31 00:55:17;;;;;;;7.07;4.70;;;4.80;1.00;;;;;;5035110;28;20435;-70
2020/12/31 00:57:42;;;;;;;5.27;4.37;;;4.80;1.00;;;;;;5033931;28;21282;-61
2020/12/31 01:00:09;;;;;;;6.03;4.70;;;4.70;1.00;;;;;;5033974;28;20469;-60
2020/12/31 01:02:35;;;;;;;7.80;5.10;;;4.60;1.00;;;;;;5033423;28;20586;-60
2020/12/31 01:05:01;;;;;;;6.30;4.57;;;4.60;1.00;;;;;;5032496;28;20855;-60
2020/12/31 01:07:26;;;;;;;5.77;5.20;;;4.60;1.00;;;;;;5032756;28;20537;-69
2020/12/31 01:09:52;;;;;;;6.53;4.00;;;;;;;;;;5032228;28;20279;-60
2020/12/31 01:12:18;;;;;;;6.57;4.30;;;4.50;1.00;;;;;;5033547;28;20511;-61
2020/12/31 01:14:43;;;;;;;8.10;5.23;;;4.50;1.00;;;;;;5032384;28;20442;-60
2020/12/31 01:17:09;;;;;;;9.00;5.70;;;4.40;1.00;;;;;;5017057;28;20177;-60
2020/12/31 01:19:35;;;;;;;5.70;3.97;;;4.50;1.00;;;;;;5021109;28;20190;-73
2020/12/31 01:22:00;;;;;;;6.40;4.50;;;4.50;1.00;;;;;;5033323;28;20199;-71
2020/12/31 01:24:26;;;;;;;5.17;4.27;;;4.50;1.00;;;;;;5037078;28;20271;-71
2020/12/31 01:26:52;;;;;;;5.40;4.60;;;4.50;1.00;;;;;;5019672;28;20282;-71
2020/12/31 01:29:17;;;;;;;6.87;4.70;;;4.30;1.00;;;;;;5017022;28;20208;-59
2020/12/31 01:31:49;;;;;;;5.67;4.60;;;4.30;1.00;;;;;;5017309;28;20235;-59
2020/12/31 01:34:15;;;;;;;7.77;5.07;;;4.40;1.00;;;;;;5016048;28;20177;-59
2020/12/31 01:36:41;;;;;;;8.63;5.27;;;4.40;1.00;;;;;;5016791;28;20435;-59
2020/12/31 01:39:06;;;;;;;5.80;4.03;;;4.30;1.00;;;;;;5017030;28;20638;-70
2020/12/31 01:41:32;;;;;;;5.57;4.10;;;4.20;1.00;;;;;;5029083;28;20607;-70
2020/12/31 01:44:05;;;;;;;6.77;4.40;;;4.30;1.00;;;;;;5036146;28;20527;-60
2020/12/31 01:46:33;;;;;;;5.43;4.80;;;4.30;1.00;;;;;;5036333;28;20187;-69
2020/12/31 01:49:00;;;;;;;5.43;4.23;;;4.30;1.00;;;;;;5024336;28;20471;-69
2020/12/31 01:51:26;;;;;;;6.30;4.70;;;4.40;1.00;;;;;;5035838;28;20471;-60
2020/12/31 01:53:56;;;;;;;5.63;4.30;;;4.30;1.00;;;;;;5016469;28;20468;-60
2020/12/31 01:56:27;;;;;;;6.00;3.90;;;4.30;1.00;;;;;;5016595;28;20599;-59
2020/12/31 01:58:52;;;;;;;5.87;4.20;;;4.30;1.00;;;;;;5026099;28;20430;-70
2020/12/31 02:01:20;;;;;;;6.73;5.00;;;4.20;1.00;;;;;;5035166;28;20461;-70
2020/12/31 02:03:46;;;;;;;6.40;4.50;;;4.20;1.00;;;;;;5037388;28;20196;-70
2020/12/31 02:06:11;;;;;;;6.10;4.47;;;4.10;1.00;;;;;;5040929;28;20431;-71
2020/12/31 02:08:37;;;;;;;6.00;4.83;;;4.10;1.00;;;;;;5037013;28;20624;-60
2020/12/31 02:11:03;;;;;;;4.73;4.07;;;4.10;1.00;;;;;;5036118;28;20309;-69
2020/12/31 02:13:28;;;;;;;5.30;4.20;;;4.10;1.00;;;;;;5035504;28;20186;-60
2020/12/31 02:15:54;;;;;;;5.23;4.17;;;4.00;1.00;;;;;;5035758;28;20516;-70
2020/12/31 02:18:20;;;;;;;4.80;3.97;;;4.10;1.00;;;;;;5035672;28;20189;-68
2020/12/31 02:20:45;;;;;;;5.90;4.40;;;4.00;1.00;;;;;;5035479;28;20796;-70
2020/12/31 02:23:11;;;;;;;4.20;3.80;;;4.00;1.00;;;;;;5035782;28;20269;-70
2020/12/31 02:25:37;;;;;;;4.13;3.70;;;4.10;1.00;;;;;;5035842;28;20242;-60
2020/12/31 02:28:02;;;;;;;5.57;4.10;;;4.00;1.00;;;;;;5034612;28;20609;-70
2020/12/31 02:30:28;;;;;;;4.77;3.70;;;4.00;1.00;;;;;;5032411;28;20206;-60
2020/12/31 02:32:54;;;;;;;4.13;3.73;;;3.90;1.00;;;;;;5034575;28;20235;-60
2020/12/31 02:35:19;;;;;;;4.93;4.00;;;4.00;1.00;;;;;;5034301;28;20181;-60
2020/12/31 02:37:45;;;;;;;4.07;3.57;;;3.90;1.00;;;;;;5035130;28;20633;-60
2020/12/31 02:40:10;;;;;;;4.57;4.10;;;3.90;1.00;;;;;;5032837;28;20189;-60
2020/12/31 02:42:36;;;;;;;6.80;4.27;;;3.90;1.00;;;;;;5015822;28;20181;-60
2020/12/31 02:45:03;;;;;;;4.37;3.80;;;3.90;1.00;;;;;;5018763;28;20197;-70
2020/12/31 02:47:36;;;;;;;5.80;3.73;;;3.90;1.00;;;;;;5022303;28;20233;-70
2020/12/31 02:50:02;;;;;;;5.23;4.40;;;3.80;1.00;;;;;;5033396;28;20455;-70
2020/12/31 02:52:27;;;;;;;5.03;4.30;;;3.70;1.00;;;;;;5030382;28;20445;-70
2020/12/31 02:54:53;;;;;;;5.60;4.30;;;3.80;1.00;;;;;;5028232;28;20525;-62
2020/12/31 02:57:18;;;;;;;5.00;3.90;;;3.80;1.00;;;;;;5034523;28;20594;-71
2020/12/31 02:59:44;;;;;;;4.90;3.80;;;3.80;1.00;;;;;;5030633;28;20188;-71
2020/12/31 03:02:09;;;;;;;4.33;3.90;;;3.80;1.00;;;;;;5028617;28;20313;-64
2020/12/31 03:04:35;;;;;;;4.97;4.50;;;3.80;1.00;;;;;;5031615;28;20267;-71
2020/12/31 03:07:01;;;;;;;7.10;4.77;;;3.80;1.00;;;;;;5015316;28;20524;-60
2020/12/31 03:09:26;;;;;;;5.27;4.77;;;3.90;1.00;;;;;;5014346;28;20236;-60
2020/12/31 03:11:52;;;;;;;7.83;4.20;;;3.80;1.00;;;;;;5015199;28;20200;-72
2020/12/31 03:14:17;;;;;;;5.73;4.57;;;3.70;1.00;;;;;;5025229;28;20194;-71
2020/12/31 03:16:43;;;;;;;7.03;5.10;;;3.80;1.00;;;;;;5033480;28;20507;-60
2020/12/31 03:19:08;;;;;;;7.47;5.23;;;3.80;1.00;;;;;;5035021;28;20188;-61
2020/12/31 03:21:34;;;;;;;6.50;4.93;;;3.80;1.00;;;;;;5035836;28;20262;-71
2020/12/31 03:24:00;;;;;;;5.40;4.93;;;3.80;1.00;;;;;;5032752;28;20191;-61
2020/12/31 03:26:25;;;;;;;5.83;4.67;;;3.80;1.00;;;;;;5020455;28;20194;-61
2020/12/31 03:28:51;;;;;;;7.30;4.70;;;3.70;1.00;;;;;;5034629;28;20203;-62
2020/12/31 03:31:17;;;;;;;5.83;5.17;;;3.80;1.00;;;;;;5033848;28;20195;-62
2020/12/31 03:33:42;;;;;;;6.60;4.93;;;3.70;1.00;;;;;;5026588;28;20190;-71
2020/12/31 03:36:08;;;;;;;4.93;4.40;;;3.70;1.00;;;;;;5033783;28;20173;-62
2020/12/31 03:38:33;;;;;;;9.23;5.73;;;3.70;1.00;;;;;;5017471;28;20525;-62
2020/12/31 03:40:59;;;;;;;5.40;4.90;;;3.70;1.00;;;;;;5025437;28;20601;-63
2020/12/31 03:43:25;;;;;;;6.90;5.57;;;3.60;1.00;;;;;;5029951;28;20274;-62
2020/12/31 03:45:50;;;;;;;11.03;6.97;;;3.70;1.00;;;;;;5034825;28;20194;-71
2020/12/31 03:48:16;;;;;;;11.53;6.33;;;3.70;1.00;;;;;;5033341;28;20272;-71
2020/12/31 03:50:42;;;;;;;9.17;6.60;;;3.60;1.00;;;;;;5021825;28;20275;-62
2020/12/31 03:53:07;;;;;;;10.27;6.50;;;3.70;1.00;;;;;;5016789;28;20262;-72
2020/12/31 03:55:33;;;;;;;9.60;6.30;;;3.70;1.00;;;;;;5017553;28;20437;-71
2020/12/31 03:58:00;;;;;;;7.90;6.20;;;3.60;1.00;;;;;;5032919;28;20566;-71
2020/12/31 04:00:25;;;;;;;10.27;7.27;;;3.50;1.00;;;;;;5029953;28;20443;-71
2020/12/31 04:02:51;;;;;;;8.67;6.30;;;3.60;1.00;;;;;;5015368;28;20434;-62
2020/12/31 04:05:16;;;;;;;10.10;6.70;;;3.60;1.00;;;;;;5031011;28;20191;-61
2020/12/31 04:07:42;;;;;;;8.20;6.80;;;3.50;1.00;;;;;;5034788;28;20186;-60
2020/12/31 04:10:08;;;;;;;12.30;6.20;;;3.40;1.00;;;;;;5036913;28;20201;-61
2020/12/31 04:12:33;;;;;;;8.37;6.90;;;3.40;1.00;;;;;;5033312;28;20209;-72
2020/12/31 04:14:59;;;;;;;12.07;8.00;;;3.40;1.00;;;;;;5034650;28;20181;-72
2020/12/31 04:17:25;;;;;;;7.83;7.03;;;3.40;1.00;;;;;;5033901;28;20188;-61
2020/12/31 04:19:50;;;;;;;10.67;8.00;;;3.30;1.00;;;;;;5034237;28;20262;-61
2020/12/31 04:22:16;;;;;;;13.03;9.03;;;3.40;1.00;;;;;;5034160;28;20180;-61
2020/12/31 04:24:41;;;;;;;12.57;8.10;;;3.30;1.00;;;;;;5033965;28;20786;-74
2020/12/31 04:27:07;;;;;;;12.00;8.00;;;3.20;1.00;;;;;;5033144;28;20603;-71
2020/12/31 04:29:33;;;;;;;12.07;7.90;;;3.30;1.00;;;;;;5032584;28;20596;-68
2020/12/31 04:31:58;;;;;;;9.73;7.13;;;3.30;1.00;;;;;;5034137;28;20186;-70
2020/12/31 04:34:24;;;;;;;11.87;7.97;;;3.40;1.00;;;;;;5032790;28;20333;-60
2020/12/31 04:36:50;;;;;;;8.77;7.30;;;3.40;1.00;;;;;;5033890;28;20188;-60
2020/12/31 04:39:15;;;;;;;9.40;7.57;;;3.40;1.00;;;;;;5033891;28;20192;-60
2020/12/31 04:41:41;;;;;;;13.60;7.50;;;6.10;1.00;;;;;;5021848;28;20511;-60
2020/12/31 04:44:07;;;;;;;10.20;7.87;;;3.30;1.00;;;;;;5014184;28;20180;-71
2020/12/31 04:46:34;;;;;;;8.40;7.53;;;3.30;1.00;;;;;;5014106;28;20214;-70
2020/12/31 04:49:11;;;;;;;10.60;6.60;;;3.30;1.00;;;;;;5017598;28;20294;-60
2020/12/31 04:51:37;;;;;;;12.80;7.73;;;3.20;1.00;;;;;;5050120;28;20973;-70
2020/12/31 04:54:07;;;;;;;8.60;6.50;;;3.20;1.00;;;;;;5028381;28;20919;-61
2020/12/31 04:56:37;;;;;;;13.20;7.90;;;3.10;1.00;;;;;;5023964;28;20452;-60
2020/12/31 04:59:04;;;;;;;10.50;7.50;;;3.10;1.00;;;;;;5036707;28;20432;-71
2020/12/31 05:01:29;;;;;;;11.50;7.60;;;3.10;1.00;;;;;;5020738;28;20911;-68
2020/12/31 05:03:55;;;;;;;10.90;8.80;;;3.00;1.00;;;;;;5037747;28;20430;-68
2020/12/31 05:06:22;;;;;;;11.57;8.70;;;3.00;1.00;;;;;;5036638;28;20196;-60
2020/12/31 05:08:48;;;;;;;10.83;8.00;;;3.00;1.00;;;;;;5037293;28;20523;-69
2020/12/31 05:11:13;;;;;;;13.97;8.40;;;3.00;1.00;;;;;;5036314;28;20448;-68
2020/12/31 05:13:57;;;;;;;11.10;9.00;;;3.00;1.00;;;;;;5025561;28;20617;-70
2020/12/31 05:16:27;;;;;;;13.57;9.30;;;3.00;1.00;;;;;;5066338;28;20265;-70
2020/12/31 05:18:53;;;;;;;14.33;9.30;;;2.80;1.00;;;;;;5017624;28;20434;-60
2020/12/31 05:21:19;;;;;;;12.07;8.90;;;2.80;1.00;;;;;;5017667;28;20423;-69
2020/12/31 05:23:45;;;;;;;13.43;9.80;;;2.80;1.00;;;;;;5027959;28;20823;-61
2020/12/31 05:26:11;;;;;;;12.30;9.70;;;2.80;1.00;;;;;;5037048;28;20529;-70
2020/12/31 05:28:37;;;;;;;16.80;10.00;;;2.70;1.00;;;;;;5035920;28;20649;-70
2020/12/31 05:31:07;;;;;;;12.97;9.70;;;2.70;1.00;;;;;;5035883;28;20452;-70
2020/12/31 05:33:35;;;;;;;11.00;8.77;;;2.70;1.00;;;;;;5036966;28;20421;-62
2020/12/31 05:36:16;;;;;;;12.53;9.23;;;2.70;1.00;;;;;;5035408;28;20494;-72
2020/12/31 05:38:46;;;;;;;13.20;10.10;;;2.70;1.00;;;;;;5034440;28;20441;-71
2020/12/31 05:41:12;;;;;;;14.13;9.10;;;2.70;1.00;;;;;;5035394;28;20429;-61
2020/12/31 05:43:41;;;;;;;11.60;9.73;;;2.70;1.00;;;;;;5035900;28;20442;-61
2020/12/31 05:46:11;;;;;;;17.07;10.73;;;2.70;1.00;;;;;;5036677;28;20466;-61
2020/12/31 05:48:38;;;;;;;12.50;9.30;;;2.70;1.00;;;;;;5034554;28;20471;-71
2020/12/31 05:51:26;;;;;;;17.33;11.03;;;2.70;1.00;;;;;;5036312;28;20432;-60
2020/12/31 05:53:52;;;;;;;11.20;9.00;;;2.70;1.00;;;;;;5035011;28;20466;-70
2020/12/31 05:56:20;;;;;;;12.80;9.83;;;2.70;1.00;;;;;;5034860;28;20497;-59
2020/12/31 05:58:48;;;;;;;14.00;9.57;;;2.70;1.00;;;;;;5034593;28;20828;-59
2020/12/31 06:01:14;;;;;;;11.93;9.43;;;2.70;1.00;;;;;;5036012;28;20741;-59
2020/12/31 06:03:51;;;;;;;15.70;10.30;;;2.70;1.00;;;;;;5036267;28;20423;-59
2020/12/31 06:06:19;;;;;;;12.80;10.00;;;2.80;1.00;;;;;;5035719;28;20474;-61
2020/12/31 06:08:55;;;;;;;13.30;9.37;;;2.70;1.00;;;;;;5032301;28;20472;-69
2020/12/31 06:11:32;;;;;;;11.00;9.27;;;2.80;1.00;;;;;;5036135;28;20424;-59
2020/12/31 06:14:00;;;;;;;12.07;9.13;;;2.80;1.00;;;;;;5036281;28;20898;-69
2020/12/31 06:16:27;;;;;;;11.47;8.70;;;2.80;1.00;;;;;;5035986;28;20478;-59
2020/12/31 06:19:26;;;;;;;11.87;8.97;;;2.80;1.00;;;;;;5022884;28;20459;-60
2020/12/31 06:21:59;;;;;;;15.43;9.60;;;2.90;1.00;;;;;;5019786;28;20486;-69
2020/12/31 06:24:40;;;;;;;11.87;8.37;;;2.90;1.00;;;;;;5034561;28;20425;-60
2020/12/31 06:27:06;;;;;;;11.67;9.13;;;2.90;1.00;;;;;;5035802;28;20428;-70
2020/12/31 06:29:47;;;;;;;11.07;7.87;;;3.00;1.00;;;;;;5036339;28;20476;-70
2020/12/31 06:32:26;;;;;;;12.17;8.37;;;3.00;1.00;;;;;;5034578;28;20189;-61
2020/12/31 06:35:03;;;;;;;13.87;9.17;;;3.10;1.00;;;;;;5036112;28;20461;-61
2020/12/31 06:37:30;;;;;;;11.70;7.90;;;3.10;1.00;;;;;;5034184;28;20505;-70
2020/12/31 06:40:26;;;;;;;10.20;8.70;;;3.10;1.00;;;;;;5033797;28;20764;-60
2020/12/31 06:43:05;;;;;;;9.83;8.73;;;3.10;1.00;;;;;;5035676;28;20443;-61
2020/12/31 06:45:45;;;;;;;12.80;8.90;;;3.20;1.00;;;;;;5034810;28;20433;-66
2020/12/31 06:48:26;;;;;;;11.63;9.10;;;3.20;1.00;;;;;;5025500;28;20473;-60
2020/12/31 06:50:58;;;;;;;12.27;8.47;;;3.30;1.00;;;;;;5033651;28;20465;-70
2020/12/31 06:53:51;;;;;;;11.90;8.97;;;3.30;1.00;;;;;;5033929;28;20433;-70
2020/12/31 06:56:43;;;;;;;12.87;8.53;;;3.30;1.00;;;;;;5034383;28;20503;-70
2020/12/31 06:59:28;;;;;;;11.43;8.70;;;3.10;1.00;;;;;;5035248;28;20418;-70
2020/12/31 07:02:01;;;;;;;15.83;9.80;;;3.10;1.00;;;;;;5034902;28;20511;-69
2020/12/31 07:04:35;;;;;;;12.97;9.63;;;3.10;1.00;;;;;;5030004;28;20452;-69
2020/12/31 07:07:22;;;;;;;11.70;8.80;;;2.90;1.00;;;;;;5015493;28;20450;-70
2020/12/31 07:09:55;;;;;;;11.23;8.30;;;2.90;1.00;;;;;;5033214;28;20492;-60
2020/12/31 07:12:50;;;;;;;12.73;8.80;;;2.90;1.00;;;;;;5034188;28;20516;-70
2020/12/31 07:15:17;;;;;;;11.63;9.20;;;2.80;1.00;;;;;;5036514;28;20438;-70
2020/12/31 07:17:47;;;;;;;16.30;10.23;;;2.90;1.00;;;;;;5038420;28;20456;-60
2020/12/31 07:20:17;;;;;;;14.93;9.80;;;2.90;1.00;;;;;;5035660;28;20447;-70
2020/12/31 07:22:46;;;;;;;11.80;9.07;;;2.80;1.00;;;;;;5018375;28;20772;-72
2020/12/31 07:25:13;;;;;;;12.17;8.90;;;2.80;1.00;;;;;;5034768;28;20436;-59
2020/12/31 07:27:40;;;;;;;11.93;8.93;;;2.80;1.00;;;;;;5034945;28;20428;-70
2020/12/31 07:30:12;;;;;;;11.00;8.50;;;2.90;1.00;;;;;;5034739;28;20472;-61
2020/12/31 07:33:04;;;;;;;12.43;8.70;;;3.00;1.00;;;;;;5034766;28;20811;-60
2020/12/31 07:35:35;;;;;;;13.07;9.20;;;3.00;1.00;;;;;;5034369;28;20473;-70
2020/12/31 07:38:05;;;;;;;12.07;9.10;;;3.10;1.00;;;;;;5032262;28;20430;-60
2020/12/31 07:40:38;;;;;;;16.13;9.57;;;3.00;1.00;;;;;;5032933;28;20482;-70
2020/12/31 07:43:05;;;;;;;13.70;9.30;;;3.10;1.00;;;;;;5033636;28;20434;-60
2020/12/31 07:45:32;;;;;;;10.70;9.30;;;3.10;1.00;;;;;;5030524;28;20441;-70
2020/12/31 07:47:58;;;;;;;11.03;9.37;;;3.10;1.00;;;;;;5021865;28;20471;-70
2020/12/31 07:50:25;;;;;;;14.03;8.10;;;3.10;1.00;;;;;;5034402;28;20461;-60
2020/12/31 07:52:51;;;;;;;13.43;9.03;;;3.10;1.00;;;;;;5033080;28;20785;-73
2020/12/31 07:55:17;;;;;;;13.00;9.50;;;3.00;1.00;;;;;;5033413;28;20444;-74
2020/12/31 07:57:43;;;;;;;14.00;9.37;;;3.10;1.00;;;;;;5034214;28;20439;-61
2020/12/31 08:00:14;;;;;;;14.80;9.47;;;3.20;1.00;;;;;;5033356;28;20521;-61
2020/12/31 08:02:58;;;;;;;16.70;10.60;;;3.20;1.00;;;;;;5032433;28;20190;-61
2020/12/31 08:05:26;;;;;;;14.87;10.67;;;3.30;1.00;;;;;;5034571;28;20860;-67
2020/12/31 08:07:53;;;;;;;18.10;10.33;;;3.20;1.00;;;;;;5028100;28;20940;-67
2020/12/31 08:10:20;;;;;;;9.57;8.23;;;3.20;1.00;;;;;;5027257;28;20492;-62
2020/12/31 08:12:57;;;;;;;14.47;10.90;;;3.20;1.00;;;;;;5015537;28;20911;-72
2020/12/31 08:15:26;;;;;;;13.10;9.87;;;3.20;1.00;;;;;;5014833;28;20411;-60
2020/12/31 08:17:57;;;;;;;14.40;11.13;;;3.40;1.00;;;;;;5017923;28;20517;-66
2020/12/31 08:20:28;;;;;;;14.33;11.93;;;3.40;1.00;;;;;;5032528;28;20485;-61
2020/12/31 08:23:00;;;;;;;17.03;11.20;;;3.50;1.00;;;;;;5037618;28;20926;-61
2020/12/31 08:25:27;;;;;;;16.03;11.67;;;3.60;1.00;;;;;;5038067;28;20441;-61
2020/12/31 08:27:56;;;;;;;16.40;11.23;;;3.60;1.00;;;;;;5038848;28;20823;-72
2020/12/31 08:30:23;;;;;;;16.90;12.07;;;3.70;1.00;;;;;;5037355;28;20461;-59
2020/12/31 08:32:51;;;;;;;17.03;12.57;;;3.70;1.00;;;;;;5034312;28;20433;-76
2020/12/31 08:35:23;;;;;;;20.33;12.90;;;3.70;1.00;;;;;;5027847;28;20437;-61
2020/12/31 08:38:24;;;;;;;14.60;11.47;;;3.80;1.00;;;;;;5017140;28;20434;-74
2020/12/31 08:40:54;;;;;;;18.00;12.10;;;3.80;1.00;;;;;;5018726;28;20440;-61
2020/12/31 08:43:26;;;;;;;19.30;13.30;;;3.90;1.00;;;;;;5033417;28;20533;-73
2020/12/31 08:45:56;;;;;;;18.97;12.40;;;4.00;1.00;;;;;;5037818;28;20508;-60
2020/12/31 08:48:27;;;;;;;22.63;13.73;;;4.10;1.00;;;;;;5034633;28;20600;-61
2020/12/31 08:51:03;;;;;;;16.70;12.10;;;4.10;1.00;;;;;;5033136;28;20954;-73
2020/12/31 08:53:29;;;;;;;21.10;15.30;;;4.10;1.00;;;;;;5037854;28;20417;-72
2020/12/31 08:55:55;;;;;;;21.80;14.60;;;4.10;1.00;;;;;;5037676;28;20523;-60
2020/12/31 08:58:27;;;;;;;20.50;13.60;;;4.10;1.00;;;;;;5036831;28;20924;-61
2020/12/31 09:00:52;;;;;;;19.43;12.40;;;4.20;1.00;;;;;;5037514;28;20446;-61
2020/12/31 09:03:19;;;;;;;19.43;12.87;;;4.20;1.00;;;;;;5038136;28;20421;-76
2020/12/31 09:05:56;;;;;;;19.13;13.83;;;4.30;1.00;;;;;;5035299;28;20183;-62
2020/12/31 09:08:22;;;;;;;18.80;13.50;;;4.40;1.00;;;;;;5036911;28;20427;-61
2020/12/31 09:10:48;;;;;;;17.40;12.67;;;4.40;1.00;;;;;;5029517;28;20771;-62
2020/12/31 09:13:20;;;;;;;17.10;13.00;;;4.50;1.00;;;;;;5050735;28;20443;-62
2020/12/31 09:15:46;;;;;;;17.07;13.63;;;4.60;1.00;;;;;;5051810;28;20185;-60
2020/12/31 09:18:18;;;;;;;20.47;13.53;;;4.60;1.00;;;;;;5040628;28;20765;-61
2020/12/31 09:20:44;;;;;;;17.57;12.93;;;4.70;1.00;;;;;;5036728;28;20188;-72
2020/12/31 09:23:11;;;;;;;18.70;13.30;;;4.80;1.00;;;;;;5038816;28;20772;-72
2020/12/31 09:25:52;;;;;;;20.20;13.93;;;4.90;1.00;;;;;;5037598;28;20545;-71
2020/12/31 09:28:18;;;;;;;22.07;15.10;;;4.90;1.00;;;;;;5037171;28;20441;-73
2020/12/31 09:30:45;;;;;;;19.07;14.70;;;5.10;1.00;;;;;;5036497;28;20451;-75
2020/12/31 09:33:19;;;;;;;20.77;13.70;;;5.10;1.00;;;;;;5036021;28;20454;-74
2020/12/31 09:35:44;;;;;;;19.40;12.63;;;5.20;1.00;;;;;;5036768;28;20435;-74
2020/12/31 09:38:11;;;;;;;18.83;14.63;;;5.20;1.00;;;;;;5035831;28;20928;-73
2020/12/31 09:40:37;;;;;;;19.67;13.37;;;5.40;1.00;;;;;;5018245;28;20433;-61
2020/12/31 09:43:03;;;;;;;18.97;13.50;;;5.40;1.00;;;;;;5050747;28;20540;-61
2020/12/31 09:45:29;;;;;;;16.70;13.20;;;5.50;1.00;;;;;;5036220;28;20436;-74
2020/12/31 09:48:01;;;;;;;16.10;13.10;;;5.60;1.00;;;;;;5031656;28;20217;-75
2020/12/31 09:50:28;;;;;;;16.23;13.33;;;5.70;1.00;;;;;;5024208;28;20474;-61
2020/12/31 09:52:57;;;;;;;19.63;14.17;;;5.90;1.00;;;;;;5043590;28;20435;-78
2020/12/31 09:55:23;;;;;;;16.30;12.40;;;6.00;1.00;;;;;;5048101;28;20445;-76
2020/12/31 09:57:50;;;;;;;17.53;13.10;;;6.10;1.00;;;;;;5043438;28;20534;-73
2020/12/31 10:00:16;;;;;;;17.60;13.70;;;6.10;1.00;;;;;;5028941;28;20515;-79
2020/12/31 10:02:42;;;;;;;15.90;12.20;;;6.10;1.00;;;;;;5021889;28;20522;-75
2020/12/31 10:05:08;;;;;;;15.63;12.53;;;6.10;1.00;;;;;;5031783;28;20192;-63
2020/12/31 10:07:33;;;;;;;18.63;14.00;;;6.20;1.00;;;;;;5038629;28;20258;-61
2020/12/31 10:09:59;;;;;;;15.87;12.30;;;6.10;1.00;;;;;;5036500;28;20637;-74
2020/12/31 10:12:25;;;;;;;15.70;12.50;;;6.20;1.00;;;;;;5024150;28;20180;-76
2020/12/31 10:14:52;;;;;;;16.93;12.50;;;6.30;1.00;;;;;;5035929;28;20430;-62
2020/12/31 10:17:17;;;;;;;17.40;12.70;;;6.30;1.00;;;;;;5027526;28;20177;-61
2020/12/31 10:19:43;;;;;;;17.20;12.47;;;6.30;1.00;;;;;;5036467;28;20518;-75
2020/12/31 10:22:09;;;;;;;16.93;11.77;;;6.40;1.00;;;;;;5051709;28;20582;-61
2020/12/31 10:24:35;;;;;;;18.60;11.93;;;6.40;1.00;;;;;;5017063;28;20576;-75
2020/12/31 10:27:01;;;;;;;16.53;11.50;;;6.50;1.00;;;;;;5015668;28;20519;-61
2020/12/31 10:29:27;;;;;;;14.77;11.70;;;6.70;1.00;;;;;;5016393;28;20562;-60
2020/12/31 10:31:54;;;;;;;14.83;11.50;;;6.70;1.00;;;;;;5039247;28;20176;-61
2020/12/31 10:34:21;;;;;;;16.73;11.97;;;6.70;1.00;;;;;;5039745;28;20242;-61
2020/12/31 10:36:55;;;;;;;15.63;11.67;;;6.80;1.00;;;;;;5051192;28;20430;-74
2020/12/31 10:39:21;;;;;;;13.30;10.30;;;6.80;1.00;;;;;;5056275;28;20498;-75
2020/12/31 10:41:47;;;;;;;12.93;10.27;;;6.80;1.00;;;;;;5054993;28;20978;-60
2020/12/31 10:44:14;;;;;;;19.17;11.37;;;6.90;1.00;;;;;;5052357;28;20443;-72
2020/12/31 10:46:40;;;;;;;15.40;9.93;;;6.80;1.00;;;;;;5035942;28;20427;-61
2020/12/31 10:49:05;;;;;;;12.03;9.77;;;6.80;1.00;;;;;;5035669;28;20881;-61
2020/12/31 10:51:35;;;;;;;13.57;9.97;;;6.90;1.00;;;;;;5036310;28;20458;-75
2020/12/31 10:54:02;;;;;;;13.13;9.93;;;6.90;1.00;;;;;;5040033;28;20199;-74
2020/12/31 10:56:27;;;;;;;12.70;10.00;;;7.00;1.00;;;;;;5040756;28;20422;-75
2020/12/31 10:58:53;;;;;;;14.70;8.60;;;7.10;1.00;;;;;;5036568;28;20431;-70
2020/12/31 11:01:19;;;;;;;12.23;9.47;;;7.10;1.00;;;;;;5034762;28;20180;-66
2020/12/31 11:03:44;;;;;;;13.60;9.60;;;7.10;1.00;;;;;;5035530;28;20514;-71
2020/12/31 11:06:17;;;;;;;12.60;9.03;;;7.20;1.00;;;;;;5019142;28;20177;-71
2020/12/31 11:08:43;;;;;;;9.43;7.20;;;7.30;1.00;;;;;;5034604;28;20183;-60
2020/12/31 11:11:08;;;;;;;12.47;8.57;;;7.30;1.00;;;;;;5035144;28;20507;-60
2020/12/31 11:13:34;;;;;;;10.40;8.17;;;7.40;1.00;;;;;;5034492;28;20177;-71
2020/12/31 11:16:00;;;;;;;9.83;7.13;;;7.60;1.00;;;;;;5034540;28;20169;-61
2020/12/31 11:18:25;;;;;;;9.93;7.00;;;7.60;1.00;;;;;;5035029;28;20599;-72
2020/12/31 11:20:54;;;;;;;10.93;7.53;;;7.50;1.00;;;;;;5035042;28;20638;-72
2020/12/31 11:23:19;;;;;;;9.37;7.70;;;7.60;1.00;;;;;;5034762;28;20181;-72
2020/12/31 11:25:45;;;;;;;8.83;6.93;;;7.80;1.00;;;;;;5033705;28;20521;-71
2020/12/31 11:28:11;;;;;;;8.80;6.70;;;7.70;1.00;;;;;;5034957;28;20208;-70
2020/12/31 11:30:36;;;;;;;7.63;6.00;;;7.80;1.00;;;;;;5034630;28;20200;-72
2020/12/31 11:33:02;;;;;;;7.10;5.20;;;8.00;1.00;;;;;;5034040;28;20181;-59
2020/12/31 11:35:28;;;;;;;6.70;4.50;;;8.10;1.00;;;;;;5035084;28;20177;-69
2020/12/31 11:37:53;;;;;;;6.73;4.60;;;8.10;1.00;;;;;;5017482;28;20649;-60
2020/12/31 11:40:19;;;;;;;5.80;4.83;;;8.10;1.00;;;;;;5033575;28;20278;-60
2020/12/31 11:42:44;;;;;;;5.97;4.50;;;7.90;1.00;;;;;;5034780;28;20191;-72
2020/12/31 11:45:11;;;;;;;6.90;4.93;;;7.90;1.00;;;;;;5034728;28;20176;-61
2020/12/31 11:47:36;;;;;;;6.67;4.83;;;8.20;1.00;;;;;;5034478;28;20235;-72
2020/12/31 11:50:03;;;;;;;5.20;4.10;;;8.10;1.00;;;;;;5034547;28;20467;-71
2020/12/31 11:52:28;;;;;;;4.50;4.10;;;8.30;1.00;;;;;;5034231;28;20450;-61
2020/12/31 11:54:54;;;;;;;3.20;2.90;;;8.40;1.00;;;;;;5033272;28;20427;-70
2020/12/31 11:57:19;;;;;;;3.33;3.03;;;8.40;1.00;;;;;;5034167;28;20556;-70
2020/12/31 11:59:45;;;;;;;5.50;3.17;;;8.30;1.00;;;;;;5033832;28;20685;-70
2020/12/31 12:02:11;;;;;;;8.40;4.97;;;8.10;1.00;;;;;;5033375;28;20190;-60
2020/12/31 12:04:37;;;;;;;3.17;2.70;;;8.10;1.00;;;;;;5034905;28;20177;-60
2020/12/31 12:07:03;;;;;;;3.20;2.50;;;8.20;1.00;;;;;;5033266;28;20438;-60
2020/12/31 12:09:28;;;;;;;3.10;2.70;;;8.30;1.00;;;;;;5034124;28;20205;-70
2020/12/31 12:11:54;;;;;;;3.40;3.10;;;8.40;1.00;;;;;;5033742;28;20760;-71
2020/12/31 12:14:20;;;;;;;3.47;3.17;;;8.30;1.00;;;;;;5034280;28;20200;-71
2020/12/31 12:16:50;;;;;;;4.27;3.67;;;8.30;1.00;;;;;;5033705;28;20180;-71
2020/12/31 12:19:17;;;;;;;3.53;3.23;;;8.20;1.00;;;;;;5034306;28;20176;-59
2020/12/31 12:21:43;;;;;;;4.63;3.43;;;8.30;1.00;;;;;;5033358;28;20951;-69
2020/12/31 12:24:09;;;;;;;3.50;3.00;;;8.20;1.00;;;;;;5034316;28;20520;-60
2020/12/31 12:26:36;;;;;;;4.07;3.67;;;8.40;1.00;;;;;;5033983;28;20454;-60
2020/12/31 12:29:03;;;;;;;3.43;3.00;;;8.20;1.00;;;;;;5034672;28;20577;-61
2020/12/31 12:31:36;;;;;;;3.70;3.00;;;8.20;1.00;;;;;;5033878;28;20436;-60
2020/12/31 12:34:03;;;;;;;5.87;3.57;;;8.20;1.00;;;;;;5033101;28;20485;-61
2020/12/31 12:36:29;;;;;;;3.73;3.43;;;8.20;1.00;;;;;;5034169;28;20434;-61
2020/12/31 12:38:55;;;;;;;4.20;3.27;;;8.20;1.00;;;;;;5033035;28;20804;-68
2020/12/31 12:41:21;;;;;;;3.53;3.20;;;8.20;1.00;;;;;;5033140;28;20492;-69
2020/12/31 12:43:46;;;;;;;3.27;2.97;;;8.10;1.00;;;;;;5033110;28;20212;-70
2020/12/31 12:46:14;;;;;;;5.67;3.47;;;8.00;1.00;;;;;;5036597;28;20806;-69
2020/12/31 12:48:40;;;;;;;3.43;3.13;;;7.90;1.00;;;;;;5034770;28;20732;-70
2020/12/31 12:51:06;;;;;;;4.20;3.20;;;8.00;1.00;;;;;;5033495;28;20427;-72
2020/12/31 12:53:32;;;;;;;3.23;2.93;;;8.00;1.00;;;;;;5013376;28;20440;-60
2020/12/31 12:55:57;;;;;;;3.80;3.40;;;8.00;1.00;;;;;;5046432;28;20185;-71
2020/12/31 12:58:23;;;;;;;3.93;3.30;;;8.00;1.00;;;;;;5014436;28;20186;-69
2020/12/31 13:00:49;;;;;;;4.73;3.97;;;7.80;1.00;;;;;;5014976;28;20585;-60
2020/12/31 13:03:14;;;;;;;4.43;4.03;;;7.90;1.00;;;;;;5014512;28;20178;-61
2020/12/31 13:05:40;;;;;;;4.17;3.60;;;7.80;1.00;;;;;;5014396;28;20260;-61